Flight Track Log - Related Links

Times and Time Zones

All times are in EDT time to prevent confusion due to time zone crossing. See the EGF3796 flight status page for this flight to view local times or setup timezone preferences in your user account.

Time Position Orientation Groundspeed Altitude Reporting Facility
EDT Latitude Longitude Course Direction KTS MPH feet Rate Location/Type
Wed 06:40:51 PM 41.9167 -87.9333 207° Southwest 177 204 3,100  Level Chicago TRACON
Wed 06:42:00 PM 41.6623 -88.0488 203° Southwest  Level FlightAware Approximate
Wed 06:42:39 PM 41.7983 -87.9744 195° South 248 285 7,200  Level Chicago Center
Wed 06:43:00 PM 41.5574 -88.1004 197° South  Level FlightAware Approximate
Wed 06:43:42 PM 41.7314 -88.0117 203° Southwest 263 303 10,100  Level Chicago Center
Wed 06:44:00 PM 41.4501 -88.1433 197° South  Level FlightAware Approximate
Wed 06:44:44 PM 41.6606 -88.0472 201° Southwest 272 313 12,400  Level Chicago Center
Wed 06:45:00 PM 41.3432 -88.1867 201° Southwest  Level FlightAware Approximate
Wed 06:45:46 PM 41.5869 -88.0861 202° Southwest 286 329 14,800  Level Chicago Center
Wed 06:46:00 PM 41.2475 -88.2406 207° Southwest  Level FlightAware Approximate
Wed 06:46:48 PM 41.5103 -88.1269 202° Southwest 300 345 16,800  Level Chicago Center
Wed 06:47:50 PM 41.4119 -88.1750 200° South 323 372 18,700 1,645 Climbing Chicago Center
Wed 06:48:52 PM 41.3189 -88.2200 200° South 363 418 20,200 1,694 Climbing Chicago Center
Wed 06:49:54 PM 41.2247 -88.2617 198° South 364 419 22,200 2,129 Climbing Chicago Center
Wed 06:50:56 PM 41.1106 -88.3133 199° South 363 418 24,600 1,742 Climbing Chicago Center
Wed 06:51:58 PM 41.0156 -88.3567 199° South 364 419 25,800 1,065 Climbing Chicago Center
Wed 06:53:00 PM 40.9131 -88.4022 199° South 384 442 26,800 968 Climbing Chicago Center
Wed 06:54:02 PM 40.8064 -88.4503 199° South 403 464 27,800 960 Climbing Chicago Center
Wed 06:55:05 PM 40.7072 -88.5264 210° Southwest 420 483 28,800 1,056 Climbing Chicago Center
Wed 06:56:07 PM 40.5978 -88.6456 220° Southwest 426 490 30,000 1,065 Climbing Chicago Center
Wed 06:57:09 PM 40.5056 -88.7467 220° Southwest 433 498 31,000 919 Climbing Chicago Center
Wed 06:58:11 PM 40.4203 -88.8392 220° Southwest 433 498 31,900 677 Climbing Chicago Center
Wed 06:59:13 PM 40.3250 -88.9419 219° Southwest 441 507 32,400 726 Climbing Chicago Center
Wed 07:00:15 PM 40.2283 -89.0444 219° Southwest 445 512 33,400 774 Climbing Chicago Center
Wed 07:01:17 PM 40.1169 -89.1653 220° Southwest 436 502 34,000 327 Climbing Chicago Center
Wed 07:02:05 PM 40.0400 -89.2456 219° Southwest 436 502 34,000  Level Kansas City Center
Wed 07:03:07 PM 39.9458 -89.3467 219° Southwest 437 503 34,000  Level Kansas City Center
Wed 07:04:09 PM 39.8522 -89.4481 220° Southwest 437 503 34,000  Level Kansas City Center
Wed 07:05:11 PM 39.7572 -89.5461 218° Southwest 436 502 34,000 387 Level Kansas City Center
Wed 07:06:13 PM 39.6631 -89.6475 220° Southwest 437 503 34,800 871 Climbing Kansas City Center
Wed 07:07:15 PM 39.5717 -89.7458 220° Southwest 433 498 35,800 581 Climbing Kansas City Center
Wed 07:08:17 PM 39.4636 -89.8597 219° Southwest 425 489 36,000 97 Climbing Kansas City Center
Wed 07:09:19 PM 39.3722 -89.9547 219° Southwest 423 487 36,000  Level Kansas City Center
Wed 07:10:21 PM 39.2789 -90.0497 218° Southwest 425 489 36,000  Level Kansas City Center
Wed 07:11:23 PM 39.1883 -90.1442 219° Southwest 422 486 36,000  Level Kansas City Center
Wed 07:12:25 PM 39.0978 -90.2394 219° Southwest 421 484 36,000  Level Kansas City Center
Wed 07:13:27 PM 39.0069 -90.3328 219° Southwest 421 484 36,000  Level Kansas City Center
Wed 07:14:30 PM 38.9075 -90.4369 219° Southwest 417 480 36,000  Level Kansas City Center
Wed 07:15:32 PM 38.8214 -90.5433 224° Southwest 426 490 36,000  Level Kansas City Center
Wed 07:16:34 PM 38.7419 -90.6586 229° Southwest 421 484 36,000  Level Kansas City Center
Wed 07:17:36 PM 38.6633 -90.7775 230° Southwest 424 488 36,000  Level Kansas City Center
Wed 07:18:38 PM 38.5706 -90.9169 230° Southwest 430 495 36,000  Level Kansas City Center
Wed 07:19:40 PM 38.4925 -91.0317 229° Southwest 432 497 36,000  Level Kansas City Center
Wed 07:20:42 PM 38.4189 -91.1497 232° Southwest 428 493 36,000  Level Kansas City Center
Wed 07:21:44 PM 38.3761 -91.2931 249° West 433 498 36,000  Level Kansas City Center
Wed 07:22:46 PM 38.3303 -91.4342 248° West 431 496 36,000 -581 Level Kansas City Center
Wed 07:23:48 PM 38.2767 -91.6056 248° West 431 496 34,800 -1,065 Descending Kansas City Center
Wed 07:24:50 PM 38.2344 -91.7492 250° West 433 498 33,800 -968 Descending Kansas City Center
Wed 07:25:52 PM 38.1858 -91.8906 246° West 435 501 32,800 -871 Descending Kansas City Center
Wed 07:26:54 PM 38.1358 -92.0339 246° West 439 505 32,000 -387 Descending Kansas City Center
Wed 07:27:56 PM 38.0828 -92.1831 246° West 470 541 32,000  Level Kansas City Center
Wed 07:28:58 PM 38.0267 -92.3247 243° Southwest 462 532 32,000 -339 Level Kansas City Center
Wed 07:30:00 PM 37.9661 -92.4636 241° Southwest 462 532 31,300 -871 Descending Kansas City Center
Wed 07:31:02 PM 37.8678 -92.6050 229° Southwest 448 516 30,200 -1,065 Descending Kansas City Center
Wed 07:32:04 PM 37.7858 -92.7228 229° Southwest 446 513 29,100 -976 Descending Kansas City Center
Wed 07:33:05 PM 37.7075 -92.8344 228° Southwest 450 518 28,200 -927 Descending Kansas City Center
Wed 07:34:07 PM 37.6247 -92.9517 228° Southwest 446 513 27,200 -1,065 Descending Kansas City Center
Wed 07:35:09 PM 37.5239 -93.0928 228° Southwest 449 517 26,000 -1,065 Descending Kansas City Center
Wed 07:36:11 PM 37.4386 -93.2172 229° Southwest 464 534 25,000 -968 Descending Kansas City Center
Wed 07:37:13 PM 37.3478 -93.3372 226° Southwest 470 541 24,000 -871 Descending Kansas City Center
Wed 07:38:15 PM 37.2375 -93.4172 210° Southwest 456 525 23,200 -968 Descending Kansas City Center
Wed 07:39:17 PM 37.1300 -93.4972 211° Southwest 450 518 22,000 -1,317 Descending Kansas City Center
Wed 07:40:18 PM 37.0211 -93.5722 209° Southwest 447 514 20,500 -1,512 Descending Kansas City Center
Wed 07:41:20 PM 36.9142 -93.6489 210° Southwest 444 511 18,900 -1,548 Descending Kansas City Center
Wed 07:42:22 PM 36.8083 -93.7253 210° Southwest 441 507 17,300 -1,887 Descending Kansas City Center
Wed 07:43:24 PM 36.6825 -93.8131 209° Southwest 425 489 15,000 -2,516 Descending Kansas City Center
Wed 07:44:26 PM 36.6164 -93.9153 231° Southwest 390 449 12,100 -2,195 Descending Kansas City Center
Wed 07:45:27 PM 36.5581 -94.0189 235° Southwest 373 429 10,500 -1,366 Descending Kansas City Center
Wed 07:46:29 PM 36.5117 -94.1022 235° Southwest 307 353 9,300 -1,500 Descending Kansas City Center
Wed 07:47:31 PM 36.4647 -94.1858 235° Southwest 295 339 7,400 -1,839 Descending Kansas City Center

Login

Don't have an account? Register now (free) for customized features, flight alerts, and more!